sensor_id;sensor_type;location;lat;lon;timestamp;pressure;altitude;pressure_sealevel;temperature
8362;BMP180;4218;48.326;14.304;2023-03-01T00:02:21;99160.00;;;0.50
8362;BMP180;4218;48.326;14.304;2023-03-01T00:04:46;99155.00;;;0.50
8362;BMP180;4218;48.326;14.304;2023-03-01T00:07:12;99159.00;;;0.60
8362;BMP180;4218;48.326;14.304;2023-03-01T00:09:37;99152.00;;;0.60
8362;BMP180;4218;48.326;14.304;2023-03-01T00:12:03;99148.00;;;0.70
8362;BMP180;4218;48.326;14.304;2023-03-01T00:14:29;99145.00;;;0.60
8362;BMP180;4218;48.326;14.304;2023-03-01T00:16:54;99148.00;;;0.80
8362;BMP180;4218;48.326;14.304;2023-03-01T00:19:20;99141.00;;;0.70
8362;BMP180;4218;48.326;14.304;2023-03-01T00:21:48;99143.00;;;0.90
8362;BMP180;4218;48.326;14.304;2023-03-01T00:24:14;99149.00;;;1.00
8362;BMP180;4218;48.326;14.304;2023-03-01T00:26:39;99142.00;;;1.00
8362;BMP180;4218;48.326;14.304;2023-03-01T00:29:05;99139.00;;;0.90
8362;BMP180;4218;48.326;14.304;2023-03-01T00:31:32;99144.00;;;1.00
8362;BMP180;4218;48.326;14.304;2023-03-01T00:34:01;99148.00;;;1.10
8362;BMP180;4218;48.326;14.304;2023-03-01T00:36:33;99139.00;;;0.90
8362;BMP180;4218;48.326;14.304;2023-03-01T00:39:00;99145.00;;;1.10
8362;BMP180;4218;48.326;14.304;2023-03-01T00:41:26;99140.00;;;1.10
8362;BMP180;4218;48.326;14.304;2023-03-01T00:43:52;99136.00;;;1.10
8362;BMP180;4218;48.326;14.304;2023-03-01T00:46:20;99145.00;;;0.80
8362;BMP180;4218;48.326;14.304;2023-03-01T00:48:46;99142.00;;;0.90
8362;BMP180;4218;48.326;14.304;2023-03-01T00:51:14;99143.00;;;0.90
8362;BMP180;4218;48.326;14.304;2023-03-01T00:53:42;99143.00;;;0.70
8362;BMP180;4218;48.326;14.304;2023-03-01T00:56:09;99134.00;;;0.70
8362;BMP180;4218;48.326;14.304;2023-03-01T00:58:35;99132.00;;;0.60
8362;BMP180;4218;48.326;14.304;2023-03-01T01:01:08;99134.00;;;0.60
8362;BMP180;4218;48.326;14.304;2023-03-01T01:04:01;99125.00;;;0.30
8362;BMP180;4218;48.326;14.304;2023-03-01T01:06:35;99132.00;;;0.30
8362;BMP180;4218;48.326;14.304;2023-03-01T01:09:03;99120.00;;;0.40
8362;BMP180;4218;48.326;14.304;2023-03-01T01:11:29;99124.00;;;0.60
8362;BMP180;4218;48.326;14.304;2023-03-01T01:13:56;99121.00;;;0.40
8362;BMP180;4218;48.326;14.304;2023-03-01T01:16:24;99103.00;;;0.10
8362;BMP180;4218;48.326;14.304;2023-03-01T01:18:50;99102.00;;;0.00
8362;BMP180;4218;48.326;14.304;2023-03-01T01:21:18;99100.00;;;0.00
8362;BMP180;4218;48.326;14.304;2023-03-01T01:23:45;99094.00;;;0.20
8362;BMP180;4218;48.326;14.304;2023-03-01T01:26:15;99096.00;;;0.00
8362;BMP180;4218;48.326;14.304;2023-03-01T01:28:41;99086.00;;;0.10
8362;BMP180;4218;48.326;14.304;2023-03-01T01:31:07;99095.00;;;-0.10
8362;BMP180;4218;48.326;14.304;2023-03-01T01:33:33;99079.00;;;-0.10
8362;BMP180;4218;48.326;14.304;2023-03-01T01:35:58;99078.00;;;-0.10
8362;BMP180;4218;48.326;14.304;2023-03-01T01:38:24;99074.00;;;0.10
8362;BMP180;4218;48.326;14.304;2023-03-01T01:40:50;99085.00;;;0.40
8362;BMP180;4218;48.326;14.304;2023-03-01T01:43:20;99089.00;;;0.30
8362;BMP180;4218;48.326;14.304;2023-03-01T01:45:46;99084.00;;;0.30
8362;BMP180;4218;48.326;14.304;2023-03-01T01:48:19;99083.00;;;0.60
8362;BMP180;4218;48.326;14.304;2023-03-01T01:50:46;99076.00;;;0.70
8362;BMP180;4218;48.326;14.304;2023-03-01T01:53:17;99079.00;;;0.60
8362;BMP180;4218;48.326;14.304;2023-03-01T01:55:56;99073.00;;;0.30
8362;BMP180;4218;48.326;14.304;2023-03-01T01:58:25;99079.00;;;0.10
8362;BMP180;4218;48.326;14.304;2023-03-01T02:00:53;99082.00;;;0.30
8362;BMP180;4218;48.326;14.304;2023-03-01T02:03:29;99072.00;;;0.20
8362;BMP180;4218;48.326;14.304;2023-03-01T02:06:12;99085.00;;;0.10
8362;BMP180;4218;48.326;14.304;2023-03-01T02:08:38;99074.00;;;0.20
8362;BMP180;4218;48.326;14.304;2023-03-01T02:11:06;99062.00;;;0.30
8362;BMP180;4218;48.326;14.304;2023-03-01T02:13:33;99069.00;;;0.20
8362;BMP180;4218;48.326;14.304;2023-03-01T02:16:02;99051.00;;;0.10
8362;BMP180;4218;48.326;14.304;2023-03-01T02:18:28;99060.00;;;0.30
8362;BMP180;4218;48.326;14.304;2023-03-01T02:23:40;99052.00;;;0.10
8362;BMP180;4218;48.326;14.304;2023-03-01T02:26:19;99054.00;;;-0.30
8362;BMP180;4218;48.326;14.304;2023-03-01T02:28:45;99052.00;;;-0.40
8362;BMP180;4218;48.326;14.304;2023-03-01T02:31:15;99053.00;;;-0.40
8362;BMP180;4218;48.326;14.304;2023-03-01T02:34:00;99047.00;;;-0.70
8362;BMP180;4218;48.326;14.304;2023-03-01T02:36:34;99043.00;;;-0.60
8362;BMP180;4218;48.326;14.304;2023-03-01T02:39:02;99034.00;;;-0.30
8362;BMP180;4218;48.326;14.304;2023-03-01T02:41:31;99041.00;;;-0.20
8362;BMP180;4218;48.326;14.304;2023-03-01T02:43:57;99035.00;;;-0.30
8362;BMP180;4218;48.326;14.304;2023-03-01T02:46:24;99028.00;;;-0.30
8362;BMP180;4218;48.326;14.304;2023-03-01T02:48:53;99028.00;;;-0.40
8362;BMP180;4218;48.326;14.304;2023-03-01T02:56:15;99025.00;;;-0.40
8362;BMP180;4218;48.326;14.304;2023-03-01T02:58:42;99022.00;;;-0.40
8362;BMP180;4218;48.326;14.304;2023-03-01T03:01:10;99022.00;;;-0.30
8362;BMP180;4218;48.326;14.304;2023-03-01T03:03:35;99023.00;;;-0.10
8362;BMP180;4218;48.326;14.304;2023-03-01T03:06:01;99029.00;;;-0.20
8362;BMP180;4218;48.326;14.304;2023-03-01T03:08:26;99021.00;;;-0.20
8362;BMP180;4218;48.326;14.304;2023-03-01T03:10:52;99013.00;;;-0.20
8362;BMP180;4218;48.326;14.304;2023-03-01T03:13:18;99011.00;;;-0.20
8362;BMP180;4218;48.326;14.304;2023-03-01T03:15:44;99013.00;;;-0.30
8362;BMP180;4218;48.326;14.304;2023-03-01T03:18:16;99021.00;;;-0.20
8362;BMP180;4218;48.326;14.304;2023-03-01T03:20:42;99011.00;;;-0.10
8362;BMP180;4218;48.326;14.304;2023-03-01T03:23:08;99017.00;;;0.20
8362;BMP180;4218;48.326;14.304;2023-03-01T03:25:34;99009.00;;;0.30
8362;BMP180;4218;48.326;14.304;2023-03-01T03:28:03;99008.00;;;0.30
8362;BMP180;4218;48.326;14.304;2023-03-01T03:30:37;99009.00;;;0.20
8362;BMP180;4218;48.326;14.304;2023-03-01T03:33:06;99000.00;;;-0.10
8362;BMP180;4218;48.326;14.304;2023-03-01T03:35:37;99000.00;;;-0.20
8362;BMP180;4218;48.326;14.304;2023-03-01T03:38:06;98997.00;;;-0.30
8362;BMP180;4218;48.326;14.304;2023-03-01T03:40:42;99014.00;;;-0.20
8362;BMP180;4218;48.326;14.304;2023-03-01T03:43:18;99006.00;;;0.40
8362;BMP180;4218;48.326;14.304;2023-03-01T03:45:44;98991.00;;;0.30
8362;BMP180;4218;48.326;14.304;2023-03-01T03:48:11;99005.00;;;0.40
8362;BMP180;4218;48.326;14.304;2023-03-01T03:50:38;99000.00;;;0.50
8362;BMP180;4218;48.326;14.304;2023-03-01T03:53:09;98996.00;;;0.60
8362;BMP180;4218;48.326;14.304;2023-03-01T03:55:35;98992.00;;;0.70
8362;BMP180;4218;48.326;14.304;2023-03-01T03:58:05;98997.00;;;0.80
8362;BMP180;4218;48.326;14.304;2023-03-01T04:00:39;98980.00;;;0.50
8362;BMP180;4218;48.326;14.304;2023-03-01T04:03:05;98998.00;;;0.70
8362;BMP180;4218;48.326;14.304;2023-03-01T04:05:30;98999.00;;;0.70
8362;BMP180;4218;48.326;14.304;2023-03-01T04:07:56;99008.00;;;0.90
8362;BMP180;4218;48.326;14.304;2023-03-01T04:10:36;99000.00;;;0.70
8362;BMP180;4218;48.326;14.304;2023-03-01T04:13:03;98993.00;;;0.60
8362;BMP180;4218;48.326;14.304;2023-03-01T04:15:29;99004.00;;;0.50
8362;BMP180;4218;48.326;14.304;2023-03-01T04:17:55;98989.00;;;0.20
8362;BMP180;4218;48.326;14.304;2023-03-01T04:20:24;99003.00;;;0.10
8362;BMP180;4218;48.326;14.304;2023-03-01T04:23:19;98998.00;;;0.30
8362;BMP180;4218;48.326;14.304;2023-03-01T04:30:53;98995.00;;;0.60
8362;BMP180;4218;48.326;14.304;2023-03-01T04:33:20;98992.00;;;0.70
8362;BMP180;4218;48.326;14.304;2023-03-01T04:35:45;98991.00;;;0.60
8362;BMP180;4218;48.326;14.304;2023-03-01T04:38:18;98996.00;;;0.50
8362;BMP180;4218;48.326;14.304;2023-03-01T04:40:43;99003.00;;;0.40
8362;BMP180;4218;48.326;14.304;2023-03-01T04:43:10;98991.00;;;0.40
8362;BMP180;4218;48.326;14.304;2023-03-01T04:45:38;98998.00;;;0.50
8362;BMP180;4218;48.326;14.304;2023-03-01T04:48:04;98994.00;;;0.40
8362;BMP180;4218;48.326;14.304;2023-03-01T04:50:29;99001.00;;;0.30
8362;BMP180;4218;48.326;14.304;2023-03-01T04:52:55;98991.00;;;0.30
8362;BMP180;4218;48.326;14.304;2023-03-01T04:55:26;98988.00;;;0.00
8362;BMP180;4218;48.326;14.304;2023-03-01T04:57:52;98989.00;;;0.20
8362;BMP180;4218;48.326;14.304;2023-03-01T05:00:19;98988.00;;;0.30
8362;BMP180;4218;48.326;14.304;2023-03-01T05:03:00;98984.00;;;0.20
8362;BMP180;4218;48.326;14.304;2023-03-01T05:05:36;98988.00;;;0.20
8362;BMP180;4218;48.326;14.304;2023-03-01T05:08:06;98987.00;;;0.30
8362;BMP180;4218;48.326;14.304;2023-03-01T05:10:34;98981.00;;;0.30
8362;BMP180;4218;48.326;14.304;2023-03-01T05:13:01;98984.00;;;0.40
8362;BMP180;4218;48.326;14.304;2023-03-01T05:15:28;98993.00;;;0.50
8362;BMP180;4218;48.326;14.304;2023-03-01T05:17:58;98974.00;;;0.40
8362;BMP180;4218;48.326;14.304;2023-03-01T05:20:27;98976.00;;;0.20
8362;BMP180;4218;48.326;14.304;2023-03-01T05:22:56;98990.00;;;0.30
8362;BMP180;4218;48.326;14.304;2023-03-01T05:25:22;98980.00;;;0.30
8362;BMP180;4218;48.326;14.304;2023-03-01T05:27:47;98996.00;;;0.30
8362;BMP180;4218;48.326;14.304;2023-03-01T05:30:13;98981.00;;;0.30
8362;BMP180;4218;48.326;14.304;2023-03-01T05:32:41;98989.00;;;0.30
8362;BMP180;4218;48.326;14.304;2023-03-01T05:35:08;98986.00;;;0.20
8362;BMP180;4218;48.326;14.304;2023-03-01T05:37:34;98985.00;;;0.30
8362;BMP180;4218;48.326;14.304;2023-03-01T05:40:01;98998.00;;;0.30
8362;BMP180;4218;48.326;14.304;2023-03-01T05:42:26;98987.00;;;0.20
8362;BMP180;4218;48.326;14.304;2023-03-01T05:44:51;98999.00;;;0.20
8362;BMP180;4218;48.326;14.304;2023-03-01T05:47:17;98994.00;;;0.20
8362;BMP180;4218;48.326;14.304;2023-03-01T05:49:42;99003.00;;;0.10
8362;BMP180;4218;48.326;14.304;2023-03-01T05:52:08;99004.00;;;0.20
8362;BMP180;4218;48.326;14.304;2023-03-01T05:54:33;99005.00;;;0.20
8362;BMP180;4218;48.326;14.304;2023-03-01T05:56:59;99006.00;;;0.10
8362;BMP180;4218;48.326;14.304;2023-03-01T05:59:24;99014.00;;;0.20
8362;BMP180;4218;48.326;14.304;2023-03-01T06:01:50;99004.00;;;0.30
8362;BMP180;4218;48.326;14.304;2023-03-01T06:04:15;99007.00;;;0.30
8362;BMP180;4218;48.326;14.304;2023-03-01T06:06:41;99014.00;;;0.30
8362;BMP180;4218;48.326;14.304;2023-03-01T06:09:07;99015.00;;;0.20
8362;BMP180;4218;48.326;14.304;2023-03-01T06:11:40;99016.00;;;0.30
8362;BMP180;4218;48.326;14.304;2023-03-01T06:14:06;99005.00;;;0.30
8362;BMP180;4218;48.326;14.304;2023-03-01T06:16:33;99014.00;;;0.20
8362;BMP180;4218;48.326;14.304;2023-03-01T06:19:00;99008.00;;;0.40
8362;BMP180;4218;48.326;14.304;2023-03-01T06:21:30;99016.00;;;0.30
8362;BMP180;4218;48.326;14.304;2023-03-01T06:23:55;99006.00;;;0.40
8362;BMP180;4218;48.326;14.304;2023-03-01T06:26:28;99008.00;;;0.40
8362;BMP180;4218;48.326;14.304;2023-03-01T06:28:54;99013.00;;;0.40
8362;BMP180;4218;48.326;14.304;2023-03-01T06:31:20;99015.00;;;0.30
8362;BMP180;4218;48.326;14.304;2023-03-01T06:33:47;99008.00;;;0.60
8362;BMP180;4218;48.326;14.304;2023-03-01T06:36:12;99006.00;;;0.70
8362;BMP180;4218;48.326;14.304;2023-03-01T06:39:00;99010.00;;;0.60
8362;BMP180;4218;48.326;14.304;2023-03-01T06:41:26;99008.00;;;0.60
8362;BMP180;4218;48.326;14.304;2023-03-01T06:43:53;99003.00;;;1.10
8362;BMP180;4218;48.326;14.304;2023-03-01T06:46:20;99002.00;;;1.20
8362;BMP180;4218;48.326;14.304;2023-03-01T06:48:46;99011.00;;;1.40
8362;BMP180;4218;48.326;14.304;2023-03-01T06:51:12;98999.00;;;1.50
8362;BMP180;4218;48.326;14.304;2023-03-01T06:53:37;99004.00;;;1.60
8362;BMP180;4218;48.326;14.304;2023-03-01T06:56:06;99003.00;;;1.80
8362;BMP180;4218;48.326;14.304;2023-03-01T06:58:31;99008.00;;;2.10
8362;BMP180;4218;48.326;14.304;2023-03-01T07:00:56;99012.00;;;2.90
8362;BMP180;4218;48.326;14.304;2023-03-01T07:03:23;99010.00;;;3.70
8362;BMP180;4218;48.326;14.304;2023-03-01T07:05:49;99014.00;;;4.40
8362;BMP180;4218;48.326;14.304;2023-03-01T07:08:17;99007.00;;;5.40
8362;BMP180;4218;48.326;14.304;2023-03-01T07:10:44;99008.00;;;6.30
8362;BMP180;4218;48.326;14.304;2023-03-01T07:13:09;99020.00;;;7.60
8362;BMP180;4218;48.326;14.304;2023-03-01T07:15:35;99016.00;;;8.40
8362;BMP180;4218;48.326;14.304;2023-03-01T07:18:01;99004.00;;;7.80
8362;BMP180;4218;48.326;14.304;2023-03-01T07:20:26;99003.00;;;6.80
8362;BMP180;4218;48.326;14.304;2023-03-01T07:22:53;99004.00;;;6.20
8362;BMP180;4218;48.326;14.304;2023-03-01T07:25:18;98997.00;;;5.00
8362;BMP180;4218;48.326;14.304;2023-03-01T07:27:44;99000.00;;;4.50
8362;BMP180;4218;48.326;14.304;2023-03-01T07:30:13;98990.00;;;4.20
8362;BMP180;4218;48.326;14.304;2023-03-01T07:32:39;98998.00;;;3.80
8362;BMP180;4218;48.326;14.304;2023-03-01T07:35:05;98990.00;;;3.40
8362;BMP180;4218;48.326;14.304;2023-03-01T07:37:30;99000.00;;;3.50
8362;BMP180;4218;48.326;14.304;2023-03-01T07:39:55;98987.00;;;3.60
8362;BMP180;4218;48.326;14.304;2023-03-01T07:42:21;98994.00;;;4.00
8362;BMP180;4218;48.326;14.304;2023-03-01T07:44:46;98997.00;;;4.00
8362;BMP180;4218;48.326;14.304;2023-03-01T07:47:12;98984.00;;;3.60
8362;BMP180;4218;48.326;14.304;2023-03-01T07:49:37;98982.00;;;3.80
8362;BMP180;4218;48.326;14.304;2023-03-01T07:52:05;98979.00;;;3.30
8362;BMP180;4218;48.326;14.304;2023-03-01T07:54:31;98970.00;;;3.60
8362;BMP180;4218;48.326;14.304;2023-03-01T07:56:57;98977.00;;;3.50
8362;BMP180;4218;48.326;14.304;2023-03-01T07:59:22;98968.00;;;3.40
8362;BMP180;4218;48.326;14.304;2023-03-01T08:01:54;98978.00;;;3.40
8362;BMP180;4218;48.326;14.304;2023-03-01T08:04:19;98983.00;;;3.40
8362;BMP180;4218;48.326;14.304;2023-03-01T08:06:44;98984.00;;;3.40
8362;BMP180;4218;48.326;14.304;2023-03-01T08:09:10;98975.00;;;3.50
8362;BMP180;4218;48.326;14.304;2023-03-01T08:11:37;98966.00;;;3.50
8362;BMP180;4218;48.326;14.304;2023-03-01T08:14:02;98962.00;;;3.40
8362;BMP180;4218;48.326;14.304;2023-03-01T08:16:31;98968.00;;;3.60
8362;BMP180;4218;48.326;14.304;2023-03-01T08:19:04;98971.00;;;3.70
8362;BMP180;4218;48.326;14.304;2023-03-01T08:21:29;98969.00;;;3.80
8362;BMP180;4218;48.326;14.304;2023-03-01T08:23:55;98975.00;;;3.90
8362;BMP180;4218;48.326;14.304;2023-03-01T08:26:21;98964.00;;;4.00
8362;BMP180;4218;48.326;14.304;2023-03-01T08:28:50;98972.00;;;4.10
8362;BMP180;4218;48.326;14.304;2023-03-01T08:31:25;98984.00;;;4.20
8362;BMP180;4218;48.326;14.304;2023-03-01T08:33:54;98970.00;;;4.30
8362;BMP180;4218;48.326;14.304;2023-03-01T08:36:29;98983.00;;;4.40
8362;BMP180;4218;48.326;14.304;2023-03-01T08:38:55;98971.00;;;4.40
8362;BMP180;4218;48.326;14.304;2023-03-01T08:41:22;98972.00;;;4.60
8362;BMP180;4218;48.326;14.304;2023-03-01T08:43:50;98971.00;;;4.60
8362;BMP180;4218;48.326;14.304;2023-03-01T08:46:45;98956.00;;;4.70
8362;BMP180;4218;48.326;14.304;2023-03-01T08:49:21;98960.00;;;4.70
8362;BMP180;4218;48.326;14.304;2023-03-01T08:51:47;98944.00;;;4.60
8362;BMP180;4218;48.326;14.304;2023-03-01T08:54:22;98944.00;;;4.80
8362;BMP180;4218;48.326;14.304;2023-03-01T08:56:47;98940.00;;;4.90
8362;BMP180;4218;48.326;14.304;2023-03-01T08:59:17;98945.00;;;5.10
8362;BMP180;4218;48.326;14.304;2023-03-01T09:01:43;98939.00;;;5.10
8362;BMP180;4218;48.326;14.304;2023-03-01T09:04:18;98922.00;;;5.20
8362;BMP180;4218;48.326;14.304;2023-03-01T09:06:54;98926.00;;;5.30
8362;BMP180;4218;48.326;14.304;2023-03-01T09:09:20;98923.00;;;5.10
8362;BMP180;4218;48.326;14.304;2023-03-01T09:11:46;98915.00;;;5.50
8362;BMP180;4218;48.326;14.304;2023-03-01T09:14:13;98910.00;;;5.50
8362;BMP180;4218;48.326;14.304;2023-03-01T09:16:38;98905.00;;;5.70
8362;BMP180;4218;48.326;14.304;2023-03-01T09:19:05;98903.00;;;5.80
8362;BMP180;4218;48.326;14.304;2023-03-01T09:21:32;98907.00;;;5.90
8362;BMP180;4218;48.326;14.304;2023-03-01T09:23:57;98905.00;;;6.00
8362;BMP180;4218;48.326;14.304;2023-03-01T09:26:23;98901.00;;;6.00
8362;BMP180;4218;48.326;14.304;2023-03-01T09:28:52;98907.00;;;6.10
8362;BMP180;4218;48.326;14.304;2023-03-01T09:31:19;98902.00;;;6.20
8362;BMP180;4218;48.326;14.304;2023-03-01T09:33:47;98897.00;;;6.20
8362;BMP180;4218;48.326;14.304;2023-03-01T09:36:16;98901.00;;;6.30
8362;BMP180;4218;48.326;14.304;2023-03-01T09:38:55;98895.00;;;6.30
8362;BMP180;4218;48.326;14.304;2023-03-01T09:41:25;98896.00;;;6.30
8362;BMP180;4218;48.326;14.304;2023-03-01T09:43:57;98896.00;;;6.40
8362;BMP180;4218;48.326;14.304;2023-03-01T09:46:33;98895.00;;;6.30
8362;BMP180;4218;48.326;14.304;2023-03-01T09:49:04;98899.00;;;6.30
8362;BMP180;4218;48.326;14.304;2023-03-01T09:51:34;98888.00;;;6.40
8362;BMP180;4218;48.326;14.304;2023-03-01T09:54:04;98893.00;;;6.60
8362;BMP180;4218;48.326;14.304;2023-03-01T09:56:34;98881.00;;;6.90
8362;BMP180;4218;48.326;14.304;2023-03-01T10:01:55;98879.00;;;8.20
8362;BMP180;4218;48.326;14.304;2023-03-01T10:04:49;98874.00;;;7.70
8362;BMP180;4218;48.326;14.304;2023-03-01T10:07:53;98860.00;;;7.50
8362;BMP180;4218;48.326;14.304;2023-03-01T10:10:28;98864.00;;;7.30
8362;BMP180;4218;48.326;14.304;2023-03-01T10:13:00;98853.00;;;7.00
8362;BMP180;4218;48.326;14.304;2023-03-01T10:15:45;98866.00;;;7.30
8362;BMP180;4218;48.326;14.304;2023-03-01T10:18:26;98866.00;;;7.60
8362;BMP180;4218;48.326;14.304;2023-03-01T10:21:12;98861.00;;;7.80
8362;BMP180;4218;48.326;14.304;2023-03-01T10:23:54;98860.00;;;7.90
8362;BMP180;4218;48.326;14.304;2023-03-01T10:26:58;98851.00;;;7.80
8362;BMP180;4218;48.326;14.304;2023-03-01T10:32:32;98839.00;;;7.80
8362;BMP180;4218;48.326;14.304;2023-03-01T10:34:57;98838.00;;;7.90
8362;BMP180;4218;48.326;14.304;2023-03-01T10:37:24;98828.00;;;8.10
8362;BMP180;4218;48.326;14.304;2023-03-01T10:40:02;98821.00;;;8.10
8362;BMP180;4218;48.326;14.304;2023-03-01T10:42:50;98815.00;;;7.90
8362;BMP180;4218;48.326;14.304;2023-03-01T10:48:16;98812.00;;;7.90
8362;BMP180;4218;48.326;14.304;2023-03-01T10:50:45;98811.00;;;7.90
8362;BMP180;4218;48.326;14.304;2023-03-01T10:56:13;98805.00;;;8.30
8362;BMP180;4218;48.326;14.304;2023-03-01T10:58:58;98796.00;;;8.40
8362;BMP180;4218;48.326;14.304;2023-03-01T11:01:30;98783.00;;;8.50
8362;BMP180;4218;48.326;14.304;2023-03-01T11:06:32;98785.00;;;8.40
8362;BMP180;4218;48.326;14.304;2023-03-01T11:09:19;98780.00;;;8.60
8362;BMP180;4218;48.326;14.304;2023-03-01T11:11:45;98770.00;;;8.60
8362;BMP180;4218;48.326;14.304;2023-03-01T11:14:22;98768.00;;;8.70
8362;BMP180;4218;48.326;14.304;2023-03-01T11:16:58;98767.00;;;8.70
8362;BMP180;4218;48.326;14.304;2023-03-01T11:19:24;98765.00;;;8.60
8362;BMP180;4218;48.326;14.304;2023-03-01T11:24:26;98759.00;;;8.60
8362;BMP180;4218;48.326;14.304;2023-03-01T11:26:54;98742.00;;;8.70
8362;BMP180;4218;48.326;14.304;2023-03-01T11:29:29;98738.00;;;8.50
8362;BMP180;4218;48.326;14.304;2023-03-01T11:31:59;98731.00;;;8.80
8362;BMP180;4218;48.326;14.304;2023-03-01T11:40:45;98733.00;;;9.20
8362;BMP180;4218;48.326;14.304;2023-03-01T12:00:44;98718.00;;;9.20
8362;BMP180;4218;48.326;14.304;2023-03-01T12:03:26;98714.00;;;9.40
8362;BMP180;4218;48.326;14.304;2023-03-01T12:20:25;98714.00;;;9.70
8362;BMP180;4218;48.326;14.304;2023-03-01T12:51:08;98700.00;;;9.90
8362;BMP180;4218;48.326;14.304;2023-03-01T12:53:40;98698.00;;;9.80
8362;BMP180;4218;48.326;14.304;2023-03-01T12:56:27;98699.00;;;9.60
8362;BMP180;4218;48.326;14.304;2023-03-01T12:59:28;98702.00;;;9.60
8362;BMP180;4218;48.326;14.304;2023-03-01T13:02:01;98713.00;;;9.80
8362;BMP180;4218;48.326;14.304;2023-03-01T13:04:47;98707.00;;;9.80
8362;BMP180;4218;48.326;14.304;2023-03-01T13:07:42;98701.00;;;9.80
8362;BMP180;4218;48.326;14.304;2023-03-01T13:10:31;98692.00;;;9.80
8362;BMP180;4218;48.326;14.304;2023-03-01T13:15:30;98695.00;;;9.90
8362;BMP180;4218;48.326;14.304;2023-03-01T13:20:48;98696.00;;;9.90
8362;BMP180;4218;48.326;14.304;2023-03-01T13:31:01;98693.00;;;9.90
8362;BMP180;4218;48.326;14.304;2023-03-01T13:35:56;98695.00;;;9.90
8362;BMP180;4218;48.326;14.304;2023-03-01T13:41:07;98704.00;;;9.80
8362;BMP180;4218;48.326;14.304;2023-03-01T13:43:35;98684.00;;;9.70
8362;BMP180;4218;48.326;14.304;2023-03-01T13:46:23;98691.00;;;9.60
8362;BMP180;4218;48.326;14.304;2023-03-01T13:48:55;98677.00;;;9.70
8362;BMP180;4218;48.326;14.304;2023-03-01T13:51:25;98685.00;;;9.60
8362;BMP180;4218;48.326;14.304;2023-03-01T13:53:52;98681.00;;;9.50
8362;BMP180;4218;48.326;14.304;2023-03-01T13:56:24;98687.00;;;9.60
8362;BMP180;4218;48.326;14.304;2023-03-01T13:58:58;98682.00;;;9.70
8362;BMP180;4218;48.326;14.304;2023-03-01T14:01:35;98660.00;;;9.70
8362;BMP180;4218;48.326;14.304;2023-03-01T14:04:03;98664.00;;;9.70
8362;BMP180;4218;48.326;14.304;2023-03-01T14:06:36;98655.00;;;9.70
8362;BMP180;4218;48.326;14.304;2023-03-01T14:09:21;98646.00;;;9.70
8362;BMP180;4218;48.326;14.304;2023-03-01T14:17:16;98650.00;;;9.80
8362;BMP180;4218;48.326;14.304;2023-03-01T14:19:58;98647.00;;;9.90
8362;BMP180;4218;48.326;14.304;2023-03-01T14:22:34;98649.00;;;10.00
8362;BMP180;4218;48.326;14.304;2023-03-01T14:25:03;98643.00;;;10.00
8362;BMP180;4218;48.326;14.304;2023-03-01T14:27:35;98645.00;;;10.00
8362;BMP180;4218;48.326;14.304;2023-03-01T14:30:04;98649.00;;;10.00
8362;BMP180;4218;48.326;14.304;2023-03-01T14:32:38;98658.00;;;9.80
8362;BMP180;4218;48.326;14.304;2023-03-01T14:35:22;98656.00;;;10.10
8362;BMP180;4218;48.326;14.304;2023-03-01T14:37:48;98643.00;;;10.10
8362;BMP180;4218;48.326;14.304;2023-03-01T14:40:31;98640.00;;;9.90
8362;BMP180;4218;48.326;14.304;2023-03-01T14:43:01;98641.00;;;9.70
8362;BMP180;4218;48.326;14.304;2023-03-01T14:45:30;98649.00;;;9.60
8362;BMP180;4218;48.326;14.304;2023-03-01T14:48:00;98643.00;;;9.60
8362;BMP180;4218;48.326;14.304;2023-03-01T14:50:31;98645.00;;;9.50
8362;BMP180;4218;48.326;14.304;2023-03-01T14:53:11;98641.00;;;9.50
8362;BMP180;4218;48.326;14.304;2023-03-01T14:55:59;98633.00;;;9.40
8362;BMP180;4218;48.326;14.304;2023-03-01T14:58:27;98637.00;;;9.30
8362;BMP180;4218;48.326;14.304;2023-03-01T15:00:58;98634.00;;;9.20
8362;BMP180;4218;48.326;14.304;2023-03-01T15:03:45;98637.00;;;9.10
8362;BMP180;4218;48.326;14.304;2023-03-01T15:06:14;98636.00;;;9.20
8362;BMP180;4218;48.326;14.304;2023-03-01T15:08:47;98631.00;;;9.20
8362;BMP180;4218;48.326;14.304;2023-03-01T15:13:39;98642.00;;;9.20
8362;BMP180;4218;48.326;14.304;2023-03-01T15:16:22;98649.00;;;9.20
8362;BMP180;4218;48.326;14.304;2023-03-01T15:18:55;98639.00;;;9.10
8362;BMP180;4218;48.326;14.304;2023-03-01T15:21:27;98643.00;;;9.10
8362;BMP180;4218;48.326;14.304;2023-03-01T15:24:17;98641.00;;;9.00
8362;BMP180;4218;48.326;14.304;2023-03-01T15:29:33;98656.00;;;8.90
8362;BMP180;4218;48.326;14.304;2023-03-01T15:32:28;98631.00;;;8.90
8362;BMP180;4218;48.326;14.304;2023-03-01T15:35:00;98647.00;;;8.80
8362;BMP180;4218;48.326;14.304;2023-03-01T15:37:52;98644.00;;;8.80
8362;BMP180;4218;48.326;14.304;2023-03-01T15:42:55;98646.00;;;8.80
8362;BMP180;4218;48.326;14.304;2023-03-01T15:45:24;98649.00;;;8.70
8362;BMP180;4218;48.326;14.304;2023-03-01T15:47:57;98639.00;;;8.60
8362;BMP180;4218;48.326;14.304;2023-03-01T15:50:27;98640.00;;;8.60
8362;BMP180;4218;48.326;14.304;2023-03-01T15:52:56;98651.00;;;8.50
8362;BMP180;4218;48.326;14.304;2023-03-01T15:55:42;98655.00;;;8.50
8362;BMP180;4218;48.326;14.304;2023-03-01T15:58:23;98660.00;;;8.40
8362;BMP180;4218;48.326;14.304;2023-03-01T16:00:50;98667.00;;;8.30
8362;BMP180;4218;48.326;14.304;2023-03-01T16:03:21;98665.00;;;8.30
8362;BMP180;4218;48.326;14.304;2023-03-01T16:05:48;98669.00;;;8.20
8362;BMP180;4218;48.326;14.304;2023-03-01T16:08:14;98672.00;;;8.10
8362;BMP180;4218;48.326;14.304;2023-03-01T16:10:43;98671.00;;;8.10
8362;BMP180;4218;48.326;14.304;2023-03-01T16:13:10;98683.00;;;7.90
8362;BMP180;4218;48.326;14.304;2023-03-01T16:15:38;98676.00;;;7.80
8362;BMP180;4218;48.326;14.304;2023-03-01T16:18:05;98689.00;;;7.70
8362;BMP180;4218;48.326;14.304;2023-03-01T16:20:31;98672.00;;;7.70
8362;BMP180;4218;48.326;14.304;2023-03-01T16:23:09;98682.00;;;7.70
8362;BMP180;4218;48.326;14.304;2023-03-01T16:25:48;98684.00;;;7.60
8362;BMP180;4218;48.326;14.304;2023-03-01T16:28:30;98680.00;;;7.50
8362;BMP180;4218;48.326;14.304;2023-03-01T16:30:59;98692.00;;;7.40
8362;BMP180;4218;48.326;14.304;2023-03-01T16:33:26;98691.00;;;7.30
8362;BMP180;4218;48.326;14.304;2023-03-01T16:35:52;98697.00;;;7.20
8362;BMP180;4218;48.326;14.304;2023-03-01T16:38:28;98699.00;;;7.20
8362;BMP180;4218;48.326;14.304;2023-03-01T16:41:13;98703.00;;;7.10
8362;BMP180;4218;48.326;14.304;2023-03-01T16:43:39;98701.00;;;7.10
8362;BMP180;4218;48.326;14.304;2023-03-01T16:46:24;98699.00;;;7.00
8362;BMP180;4218;48.326;14.304;2023-03-01T16:48:51;98705.00;;;6.90
8362;BMP180;4218;48.326;14.304;2023-03-01T16:51:19;98710.00;;;6.80
8362;BMP180;4218;48.326;14.304;2023-03-01T16:53:45;98701.00;;;6.80
8362;BMP180;4218;48.326;14.304;2023-03-01T16:56:12;98710.00;;;6.70
8362;BMP180;4218;48.326;14.304;2023-03-01T16:58:39;98710.00;;;6.60
8362;BMP180;4218;48.326;14.304;2023-03-01T17:01:15;98724.00;;;6.60